Time;durP1;ratioP1;P1;durP2;ratioP2;P2;SDS_P1;SDS_P2;PMS_P1;PMS_P2;Temp;Humidity;BMP_temperature;BMP_pressure;BME280_temperature;BME280_humidity;BME280_pressure;Samples;Min_cycle;Max_cycle;Signal;HPM_P1;HPM_P2
2024/01/24 00:01:36;;;;;;;2.43;1.03;;;;;;;;;;5019989;28;20246;-64
2024/01/24 00:04:03;;;;;;;0.80;0.80;;;;;;;;;;5023735;28;20345;-63
2024/01/24 00:06:30;;;;;;;1.83;1.20;;;;;;;;;;5023033;28;20261;-61
2024/01/24 00:08:59;;;;;;;3.30;1.20;;;;;;;;;;5021979;28;20224;-62
2024/01/24 00:11:26;;;;;;;1.93;1.10;;;;;;;;;;5018596;28;20291;-62
2024/01/24 00:13:53;;;;;;;2.23;1.10;;;;;;;;;;5018641;28;20296;-62
2024/01/24 00:16:20;;;;;;;2.23;1.10;;;;;;;;;;5020759;28;20282;-63
2024/01/24 00:18:47;;;;;;;2.27;0.90;;;;;;;;;;5021359;28;20204;-64
2024/01/24 00:21:15;;;;;;;3.07;0.90;;;;;;;;;;5024343;28;20210;-62
2024/01/24 00:23:42;;;;;;;1.93;0.80;;;;;;;;;;5018204;28;20196;-62
2024/01/24 00:26:10;;;;;;;2.23;1.10;;;;;;;;;;5022679;28;20200;-63
2024/01/24 00:28:37;;;;;;;1.93;1.03;;;;;;;;;;5024708;28;20215;-62
2024/01/24 00:31:04;;;;;;;2.53;1.03;;;;;;;;;;5023862;28;20212;-61
2024/01/24 00:33:31;;;;;;;3.13;1.10;;;;;;;;;;5029494;28;20200;-62
2024/01/24 00:35:59;;;;;;;1.77;1.00;;;;;;;;;;5027944;28;20440;-62
2024/01/24 00:38:26;;;;;;;1.80;1.10;;;;;;;;;;5022041;28;20204;-62
2024/01/24 00:40:53;;;;;;;2.10;1.10;;;;;;;;;;5026567;28;20199;-63
2024/01/24 00:43:22;;;;;;;2.30;1.00;;;;;;;;;;5020223;28;20202;-62
2024/01/24 00:45:49;;;;;;;1.93;1.20;;;;;;;;;;5020154;28;20246;-63
2024/01/24 00:48:16;;;;;;;1.33;0.93;;;;;;;;;;5017626;28;20223;-63
2024/01/24 00:50:43;;;;;;;1.60;0.90;;;;;;;;;;5025837;28;20207;-63
2024/01/24 00:53:16;;;;;;;1.03;0.83;;;;;;;;;;5022012;28;20200;-63
2024/01/24 00:55:43;;;;;;;0.80;0.80;;;;;;;;;;5020319;28;20203;-63
2024/01/24 00:58:10;;;;;;;0.90;0.90;;;;;;;;;;5017000;28;20204;-67
2024/01/24 01:00:39;;;;;;;1.00;0.90;;;;;;;;;;5011222;28;20204;-66
2024/01/24 01:03:07;;;;;;;1.37;0.83;;;;;;;;;;5021773;28;20245;-66
2024/01/24 01:05:34;;;;;;;1.10;0.90;;;;;;;;;;5017514;28;20202;-67
2024/01/24 01:08:01;;;;;;;0.60;0.60;;;;;;;;;;5026830;28;20219;-67
2024/01/24 01:10:28;;;;;;;1.20;0.70;;;;;;;;;;5026419;28;20197;-67
2024/01/24 01:12:55;;;;;;;1.27;0.80;;;;;;;;;;5028767;28;20212;-67
2024/01/24 01:15:24;;;;;;;0.83;0.83;;;;;;;;;;5026041;28;20211;-67
2024/01/24 01:17:52;;;;;;;1.37;0.80;;;;;;;;;;5028501;28;20284;-67
2024/01/24 01:20:19;;;;;;;1.00;0.60;;;;;;;;;;5021626;28;20200;-67
2024/01/24 01:22:46;;;;;;;0.70;0.60;;;;;;;;;;5024733;28;20287;-67
2024/01/24 01:25:14;;;;;;;1.40;0.87;;;;;;;;;;5020853;28;20203;-67
2024/01/24 01:27:41;;;;;;;0.77;0.60;;;;;;;;;;5023881;28;20200;-67
2024/01/24 01:30:08;;;;;;;0.80;0.80;;;;;;;;;;5022069;28;20196;-67
2024/01/24 01:32:36;;;;;;;1.20;0.70;;;;;;;;;;5022857;28;20203;-67
2024/01/24 01:35:04;;;;;;;0.67;0.60;;;;;;;;;;5031963;28;20195;-67
2024/01/24 01:37:31;;;;;;;1.70;0.80;;;;;;;;;;5021541;28;20209;-67
2024/01/24 01:39:58;;;;;;;1.90;0.80;;;;;;;;;;5023839;28;20204;-67
2024/01/24 01:42:26;;;;;;;0.73;0.60;;;;;;;;;;5024065;28;20196;-67
2024/01/24 01:44:53;;;;;;;1.37;0.60;;;;;;;;;;5022303;28;20200;-67
2024/01/24 01:47:21;;;;;;;0.80;0.80;;;;;;;;;;5023139;28;20207;-67
2024/01/24 01:49:48;;;;;;;0.70;0.70;;;;;;;;;;5024923;28;20227;-67
2024/01/24 01:52:17;;;;;;;0.70;0.70;;;;;;;;;;5021855;28;20247;-67
2024/01/24 01:54:44;;;;;;;0.60;0.60;;;;;;;;;;5022880;28;20206;-66
2024/01/24 01:57:12;;;;;;;0.90;0.70;;;;;;;;;;5021869;28;20196;-67
2024/01/24 01:59:39;;;;;;;1.03;0.70;;;;;;;;;;5023921;28;20208;-67
2024/01/24 02:02:07;;;;;;;1.20;0.80;;;;;;;;;;5021875;28;20196;-68
2024/01/24 02:04:34;;;;;;;0.87;0.50;;;;;;;;;;5023110;28;20250;-67
2024/01/24 02:07:02;;;;;;;0.60;0.60;;;;;;;;;;5021973;28;20242;-67
2024/01/24 02:09:31;;;;;;;0.60;0.60;;;;;;;;;;5021193;28;20208;-62
2024/01/24 02:11:58;;;;;;;0.50;0.50;;;;;;;;;;5022208;28;20219;-62
2024/01/24 02:14:25;;;;;;;1.13;0.43;;;;;;;;;;5021885;28;20196;-62
2024/01/24 02:16:52;;;;;;;0.53;0.40;;;;;;;;;;5023856;28;20209;-62
2024/01/24 02:19:19;;;;;;;0.40;0.40;;;;;;;;;;5023982;28;20203;-62
2024/01/24 02:21:46;;;;;;;0.83;0.50;;;;;;;;;;5022433;28;20204;-62
2024/01/24 02:24:15;;;;;;;0.50;0.50;;;;;;;;;;5022563;28;20262;-62
2024/01/24 02:26:42;;;;;;;0.50;0.50;;;;;;;;;;5021438;28;20289;-63
2024/01/24 02:29:09;;;;;;;0.60;0.60;;;;;;;;;;5028269;28;20208;-62
2024/01/24 02:31:36;;;;;;;0.57;0.50;;;;;;;;;;5020206;28;20200;-63
2024/01/24 02:34:03;;;;;;;0.70;0.70;;;;;;;;;;5020920;28;20201;-62
2024/01/24 02:36:30;;;;;;;0.50;0.50;;;;;;;;;;5027081;28;20215;-62
2024/01/24 02:38:57;;;;;;;0.87;0.53;;;;;;;;;;5024372;28;20206;-62
2024/01/24 02:41:26;;;;;;;1.67;0.80;;;;;;;;;;5032086;28;20200;-62
2024/01/24 02:43:53;;;;;;;1.47;0.70;;;;;;;;;;5022630;28;20231;-62
2024/01/24 02:46:20;;;;;;;0.80;0.80;;;;;;;;;;5023674;28;20200;-63
2024/01/24 02:48:47;;;;;;;0.73;0.70;;;;;;;;;;5023263;28;20220;-62
2024/01/24 02:51:24;;;;;;;0.50;0.50;;;;;;;;;;5021823;28;20206;-62
2024/01/24 02:53:51;;;;;;;0.60;0.60;;;;;;;;;;5021862;28;20192;-62
2024/01/24 02:56:18;;;;;;;0.67;0.67;;;;;;;;;;5019859;28;20192;-62
2024/01/24 02:58:46;;;;;;;0.63;0.63;;;;;;;;;;5022417;28;20215;-62
2024/01/24 03:01:15;;;;;;;0.53;0.53;;;;;;;;;;5024571;28;20206;-62
2024/01/24 03:03:43;;;;;;;0.70;0.60;;;;;;;;;;5013065;28;20232;-64
2024/01/24 03:06:10;;;;;;;0.50;0.50;;;;;;;;;;5017184;28;20291;-62
2024/01/24 03:08:47;;;;;;;0.80;0.60;;;;;;;;;;5022430;28;20242;-62
2024/01/24 03:11:14;;;;;;;0.63;0.63;;;;;;;;;;5026627;28;20203;-62
2024/01/24 03:13:41;;;;;;;0.70;0.70;;;;;;;;;;5021746;28;20215;-62
2024/01/24 03:16:10;;;;;;;0.60;0.60;;;;;;;;;;5021781;28;20389;-62
2024/01/24 03:18:37;;;;;;;0.80;0.80;;;;;;;;;;5023760;28;20208;-63
2024/01/24 03:21:05;;;;;;;0.70;0.70;;;;;;;;;;5023413;28;20201;-63
2024/01/24 03:23:32;;;;;;;1.27;0.60;;;;;;;;;;5024467;28;20261;-62
2024/01/24 03:25:59;;;;;;;0.50;0.50;;;;;;;;;;5024588;28;20200;-63
2024/01/24 03:28:26;;;;;;;0.70;0.70;;;;;;;;;;5019362;28;20220;-63
2024/01/24 03:30:53;;;;;;;0.70;0.70;;;;;;;;;;5023879;28;21480;-63
2024/01/24 03:33:22;;;;;;;0.70;0.70;;;;;;;;;;5017984;28;20196;-61
2024/01/24 03:35:49;;;;;;;0.93;0.70;;;;;;;;;;5022355;28;20197;-62
2024/01/24 03:38:16;;;;;;;0.70;0.70;;;;;;;;;;5021879;28;20211;-63
2024/01/24 03:40:43;;;;;;;1.13;0.87;;;;;;;;;;5025630;28;20203;-62
2024/01/24 03:43:11;;;;;;;0.50;0.50;;;;;;;;;;5027381;28;20215;-63
2024/01/24 03:45:38;;;;;;;0.73;0.70;;;;;;;;;;5020467;28;20303;-63
2024/01/24 03:48:06;;;;;;;1.20;0.70;;;;;;;;;;5021345;28;20206;-62
2024/01/24 03:50:35;;;;;;;0.60;0.60;;;;;;;;;;5021199;28;20203;-62
2024/01/24 03:53:02;;;;;;;0.67;0.50;;;;;;;;;;5023781;28;20208;-62
2024/01/24 03:55:29;;;;;;;0.60;0.47;;;;;;;;;;5023536;28;20214;-63
2024/01/24 03:57:57;;;;;;;0.40;0.40;;;;;;;;;;5020974;28;20219;-62
2024/01/24 04:00:24;;;;;;;0.47;0.47;;;;;;;;;;5025939;28;20195;-62
2024/01/24 04:02:51;;;;;;;0.50;0.50;;;;;;;;;;5020354;28;20240;-63
2024/01/24 04:05:18;;;;;;;3.07;0.60;;;;;;;;;;5022152;28;20329;-62
2024/01/24 04:07:47;;;;;;;1.13;0.40;;;;;;;;;;5023719;28;20208;-61
2024/01/24 04:10:15;;;;;;;0.30;0.30;;;;;;;;;;5021959;28;20242;-62
2024/01/24 04:12:43;;;;;;;0.47;0.40;;;;;;;;;;5024650;28;20236;-63
2024/01/24 04:15:10;;;;;;;0.83;0.50;;;;;;;;;;5022437;28;20200;-62
2024/01/24 04:17:37;;;;;;;0.40;0.40;;;;;;;;;;5021352;28;20216;-62
2024/01/24 04:20:05;;;;;;;0.30;0.30;;;;;;;;;;5023684;28;20207;-62
2024/01/24 04:22:32;;;;;;;1.33;0.33;;;;;;;;;;5023977;28;20247;-62
2024/01/24 04:25:01;;;;;;;0.30;0.30;;;;;;;;;;5020307;28;20208;-63
2024/01/24 04:27:28;;;;;;;1.20;0.40;;;;;;;;;;5018401;28;20298;-67
2024/01/24 04:29:55;;;;;;;0.50;0.40;;;;;;;;;;5022692;28;20220;-63
2024/01/24 04:32:23;;;;;;;0.50;0.50;;;;;;;;;;5017402;28;20203;-62
2024/01/24 04:34:50;;;;;;;0.80;0.80;;;;;;;;;;5021839;28;20202;-62
2024/01/24 04:37:17;;;;;;;0.70;0.70;;;;;;;;;;5022634;28;20208;-63
2024/01/24 04:39:44;;;;;;;0.67;0.30;;;;;;;;;;5025255;28;20200;-63
2024/01/24 04:42:12;;;;;;;1.20;1.17;;;;;;;;;;5017232;28;20214;-63
2024/01/24 04:44:39;;;;;;;1.57;1.20;;;;;;;;;;5018301;28;20200;-62
2024/01/24 04:47:07;;;;;;;0.60;0.60;;;;;;;;;;5020964;28;20200;-63
2024/01/24 04:49:34;;;;;;;1.70;1.20;;;;;;;;;;5018629;28;20220;-62
2024/01/24 04:52:01;;;;;;;1.30;1.30;;;;;;;;;;5016918;28;20211;-63
2024/01/24 04:54:28;;;;;;;0.60;0.60;;;;;;;;;;5019618;28;20280;-62
2024/01/24 04:56:55;;;;;;;0.57;0.57;;;;;;;;;;5024990;28;20204;-62
2024/01/24 04:59:24;;;;;;;0.53;0.53;;;;;;;;;;5012222;28;20204;-63
2024/01/24 05:01:51;;;;;;;0.70;0.70;;;;;;;;;;5007338;28;20212;-63
2024/01/24 05:04:18;;;;;;;0.33;0.33;;;;;;;;;;5020150;28;20523;-62
2024/01/24 05:06:45;;;;;;;1.17;0.63;;;;;;;;;;5021415;28;20201;-62
2024/01/24 05:09:14;;;;;;;0.67;0.67;;;;;;;;;;5020796;28;20230;-63
2024/01/24 05:11:41;;;;;;;1.33;0.50;;;;;;;;;;5019025;28;20215;-62
2024/01/24 05:14:08;;;;;;;0.60;0.60;;;;;;;;;;5020210;28;20204;-61
2024/01/24 05:16:41;;;;;;;0.50;0.50;;;;;;;;;;5023171;28;20208;-62
2024/01/24 05:19:08;;;;;;;0.50;0.50;;;;;;;;;;5020358;28;20196;-61
2024/01/24 05:21:40;;;;;;;0.40;0.40;;;;;;;;;;5022910;28;20232;-62
2024/01/24 05:24:08;;;;;;;0.50;0.50;;;;;;;;;;5018457;28;20196;-62
2024/01/24 05:26:36;;;;;;;0.83;0.60;;;;;;;;;;5020483;28;20227;-62
2024/01/24 05:29:03;;;;;;;0.97;0.90;;;;;;;;;;5022758;28;20220;-62
2024/01/24 05:31:30;;;;;;;1.50;0.60;;;;;;;;;;5019864;28;20262;-62
2024/01/24 05:33:59;;;;;;;0.60;0.50;;;;;;;;;;5017578;28;20197;-63
2024/01/24 05:36:27;;;;;;;0.63;0.50;;;;;;;;;;5020757;28;20209;-62
2024/01/24 05:38:54;;;;;;;0.53;0.53;;;;;;;;;;5025822;28;20212;-62
2024/01/24 05:41:21;;;;;;;0.43;0.43;;;;;;;;;;5020319;28;20197;-62
2024/01/24 05:43:48;;;;;;;0.40;0.40;;;;;;;;;;5022163;28;20206;-63
2024/01/24 05:46:15;;;;;;;0.50;0.50;;;;;;;;;;5022994;28;20207;-62
2024/01/24 05:48:42;;;;;;;0.60;0.60;;;;;;;;;;5021887;28;20200;-62
2024/01/24 05:51:12;;;;;;;1.23;0.33;;;;;;;;;;5024313;28;20208;-61
2024/01/24 05:53:41;;;;;;;0.40;0.40;;;;;;;;;;5028724;28;20215;-61
2024/01/24 05:56:09;;;;;;;0.30;0.30;;;;;;;;;;5027291;28;20204;-62
2024/01/24 05:58:36;;;;;;;0.40;0.40;;;;;;;;;;5024283;28;20195;-62
2024/01/24 06:01:05;;;;;;;0.40;0.40;;;;;;;;;;5022059;28;20196;-62
2024/01/24 06:03:32;;;;;;;0.50;0.50;;;;;;;;;;5020336;28;20283;-62
2024/01/24 06:05:59;;;;;;;0.53;0.40;;;;;;;;;;5020517;28;20200;-62
2024/01/24 06:08:29;;;;;;;0.30;0.30;;;;;;;;;;5024775;28;20204;-62
2024/01/24 06:10:56;;;;;;;1.03;0.40;;;;;;;;;;5024580;28;20310;-62
2024/01/24 06:13:23;;;;;;;0.40;0.40;;;;;;;;;;5022166;28;20208;-62
2024/01/24 06:15:51;;;;;;;0.33;0.33;;;;;;;;;;5021190;28;20227;-62
2024/01/24 06:18:18;;;;;;;0.43;0.30;;;;;;;;;;5023670;28;20198;-62
2024/01/24 06:20:47;;;;;;;0.50;0.30;;;;;;;;;;5022200;28;20189;-62
2024/01/24 06:23:14;;;;;;;3.23;1.70;;;;;;;;;;5028531;28;20192;-62
2024/01/24 06:25:42;;;;;;;5.13;4.10;;;;;;;;;;5020933;28;20201;-62
2024/01/24 06:28:09;;;;;;;0.47;0.47;;;;;;;;;;5028512;28;20227;-62
2024/01/24 06:30:36;;;;;;;0.17;0.13;;;;;;;;;;5022942;28;20212;-62
2024/01/24 06:33:04;;;;;;;0.20;0.20;;;;;;;;;;5023654;28;20208;-62
2024/01/24 06:35:31;;;;;;;0.10;0.10;;;;;;;;;;5014414;28;20295;-63
2024/01/24 06:37:59;;;;;;;0.00;0.00;;;;;;;;;;5021446;28;20215;-61
2024/01/24 06:40:26;;;;;;;0.83;0.30;;;;;;;;;;5022294;28;20208;-62
2024/01/24 06:42:55;;;;;;;0.37;0.23;;;;;;;;;;5020844;28;20495;-62
2024/01/24 06:45:22;;;;;;;0.20;0.20;;;;;;;;;;5020038;28;20200;-62
2024/01/24 06:47:52;;;;;;;0.68;0.38;;;;;;;;;;5018870;28;20207;-62
2024/01/24 06:50:20;;;;;;;1.10;1.00;;;;;;;;;;5019364;28;20231;-60
2024/01/24 06:52:47;;;;;;;0.70;0.70;;;;;;;;;;5024058;28;20211;-62
2024/01/24 06:55:15;;;;;;;0.20;0.20;;;;;;;;;;5024833;28;20246;-62
2024/01/24 06:57:42;;;;;;;0.40;0.40;;;;;;;;;;5017337;28;20252;-62
2024/01/24 07:00:12;;;;;;;1.13;0.40;;;;;;;;;;5025345;28;20199;-62
2024/01/24 07:02:39;;;;;;;1.27;0.50;;;;;;;;;;5020722;28;20192;-61
2024/01/24 07:05:07;;;;;;;2.77;0.60;;;;;;;;;;5023169;28;20291;-62
2024/01/24 07:07:34;;;;;;;0.82;0.50;;;;;;;;;;5020973;28;20200;-62
2024/01/24 07:10:03;;;;;;;3.83;0.87;;;;;;;;;;5022102;28;20224;-63
2024/01/24 07:12:31;;;;;;;1.60;0.97;;;;;;;;;;5024992;28;20227;-62
2024/01/24 07:14:59;;;;;;;2.50;0.80;;;;;;;;;;5022801;28;20201;-63
2024/01/24 07:17:28;;;;;;;0.83;0.67;;;;;;;;;;5027011;28;20202;-62
2024/01/24 07:19:55;;;;;;;1.47;0.70;;;;;;;;;;5020406;28;20232;-62
2024/01/24 07:22:23;;;;;;;2.73;1.30;;;;;;;;;;5021106;28;20212;-62
2024/01/24 07:24:54;;;;;;;3.07;0.70;;;;;;;;;;5022840;28;20200;-62
2024/01/24 07:27:21;;;;;;;2.40;0.70;;;;;;;;;;5021502;28;20284;-62
2024/01/24 07:29:51;;;;;;;1.70;0.80;;;;;;;;;;5024901;28;20266;-62
2024/01/24 07:32:20;;;;;;;2.73;0.90;;;;;;;;;;5020892;28;20201;-63
2024/01/24 07:34:50;;;;;;;2.30;0.80;;;;;;;;;;5023640;28;20208;-62
2024/01/24 07:37:17;;;;;;;3.07;1.00;;;;;;;;;;5020462;28;20219;-62
2024/01/24 07:39:44;;;;;;;2.93;0.90;;;;;;;;;;5022843;28;20203;-62
2024/01/24 07:42:12;;;;;;;2.53;0.83;;;;;;;;;;5026675;28;20205;-61
2024/01/24 07:44:39;;;;;;;2.57;0.97;;;;;;;;;;5029691;28;20197;-61
2024/01/24 07:47:07;;;;;;;3.27;0.90;;;;;;;;;;5025546;28;20204;-62
2024/01/24 07:49:34;;;;;;;0.80;0.60;;;;;;;;;;5022534;28;20225;-63
2024/01/24 07:52:03;;;;;;;1.93;0.90;;;;;;;;;;5020774;28;20201;-62
2024/01/24 07:54:30;;;;;;;2.13;1.10;;;;;;;;;;5018002;28;20196;-62
2024/01/24 07:56:58;;;;;;;2.92;1.00;;;;;;;;;;5015441;28;20215;-62
2024/01/24 07:59:25;;;;;;;2.37;0.50;;;;;;;;;;5013689;28;20207;-62
2024/01/24 08:01:52;;;;;;;1.23;0.57;;;;;;;;;;5024125;28;20294;-61
2024/01/24 08:04:20;;;;;;;5.17;0.70;;;;;;;;;;5024106;28;20271;-62
2024/01/24 08:06:47;;;;;;;3.60;1.00;;;;;;;;;;5023703;28;20200;-62
2024/01/24 08:09:17;;;;;;;2.37;0.97;;;;;;;;;;5012345;28;20197;-62
2024/01/24 08:11:44;;;;;;;1.70;0.80;;;;;;;;;;5019377;28;20223;-61
2024/01/24 08:14:12;;;;;;;1.10;0.80;;;;;;;;;;5018604;28;20196;-61
2024/01/24 08:16:40;;;;;;;2.17;1.00;;;;;;;;;;5019015;28;20318;-62
2024/01/24 08:19:07;;;;;;;2.33;1.00;;;;;;;;;;5023645;28;20244;-63
2024/01/24 08:21:35;;;;;;;1.80;0.93;;;;;;;;;;5021885;28;20340;-62
2024/01/24 08:24:02;;;;;;;2.83;1.03;;;;;;;;;;5021170;28;20192;-62
2024/01/24 08:26:31;;;;;;;2.60;1.10;;;;;;;;;;5021642;28;20211;-62
2024/01/24 08:28:59;;;;;;;2.80;1.30;;;;;;;;;;5020968;28;20216;-62
2024/01/24 08:31:26;;;;;;;3.97;1.30;;;;;;;;;;5019082;28;20298;-62
2024/01/24 08:33:54;;;;;;;8.20;1.70;;;;;;;;;;5024087;28;20204;-62
2024/01/24 08:36:21;;;;;;;5.90;1.60;;;;;;;;;;5022123;28;20291;-62
2024/01/24 08:38:50;;;;;;;4.50;1.70;;;;;;;;;;5013398;28;20253;-63
2024/01/24 08:41:18;;;;;;;7.73;1.40;;;;;;;;;;5021664;28;20203;-62
2024/01/24 08:43:52;;;;;;;6.03;1.77;;;;;;;;;;5018803;28;20196;-62
2024/01/24 08:46:20;;;;;;;4.40;1.47;;;;;;;;;;5022404;28;20202;-61
2024/01/24 08:48:47;;;;;;;6.17;1.63;;;;;;;;;;5027010;28;20204;-62
2024/01/24 08:51:15;;;;;;;7.37;1.50;;;;;;;;;;5016496;28;20219;-63
2024/01/24 08:53:42;;;;;;;3.90;1.70;;;;;;;;;;5021145;28;20206;-62
2024/01/24 08:56:10;;;;;;;4.87;1.57;;;;;;;;;;5021609;28;20211;-63
2024/01/24 08:58:38;;;;;;;6.13;1.80;;;;;;;;;;5027248;28;20247;-62
2024/01/24 09:01:07;;;;;;;4.50;1.60;;;;;;;;;;5017578;28;20211;-63
2024/01/24 09:03:35;;;;;;;4.57;1.43;;;;;;;;;;5021550;28;20238;-61
2024/01/24 09:06:03;;;;;;;6.03;1.50;;;;;;;;;;5018009;28;20205;-61
2024/01/24 09:08:30;;;;;;;3.80;1.50;;;;;;;;;;5023212;28;20288;-62
2024/01/24 09:10:57;;;;;;;3.90;1.37;;;;;;;;;;5024413;28;20241;-62
2024/01/24 09:13:24;;;;;;;4.67;1.43;;;;;;;;;;5022350;28;20196;-60
2024/01/24 09:15:51;;;;;;;6.67;1.67;;;;;;;;;;5017310;28;20303;-62
2024/01/24 09:18:20;;;;;;;5.87;1.50;;;;;;;;;;5020195;28;20227;-62
2024/01/24 09:20:48;;;;;;;6.57;1.87;;;;;;;;;;5020710;28;20192;-63
2024/01/24 09:23:21;;;;;;;5.43;2.00;;;;;;;;;;5017099;28;20207;-62
2024/01/24 09:25:49;;;;;;;6.80;2.00;;;;;;;;;;5023189;28;20232;-63
2024/01/24 09:28:16;;;;;;;10.67;2.30;;;;;;;;;;5025053;28;20230;-62
2024/01/24 09:30:43;;;;;;;8.83;2.13;;;;;;;;;;5023997;28;20224;-62
2024/01/24 09:33:10;;;;;;;7.77;2.33;;;;;;;;;;5029103;28;20424;-62
2024/01/24 09:35:40;;;;;;;7.07;2.30;;;;;;;;;;5023305;28;20208;-61
2024/01/24 09:38:07;;;;;;;7.73;2.00;;;;;;;;;;5026383;28;20200;-62
2024/01/24 09:40:35;;;;;;;6.83;2.20;;;;;;;;;;5020637;28;20201;-62
2024/01/24 09:43:02;;;;;;;7.87;2.33;;;;;;;;;;5022154;28;20197;-62
2024/01/24 09:45:29;;;;;;;7.53;2.13;;;;;;;;;;5026189;28;20200;-62
2024/01/24 09:47:58;;;;;;;8.90;2.50;;;;;;;;;;5025623;28;20204;-62
2024/01/24 09:50:26;;;;;;;10.63;2.40;;;;;;;;;;5027141;28;20216;-63
2024/01/24 09:52:54;;;;;;;8.17;2.60;;;;;;;;;;5023501;28;20246;-62
2024/01/24 09:55:22;;;;;;;7.43;2.47;;;;;;;;;;5023538;28;20223;-62
2024/01/24 09:57:49;;;;;;;10.47;2.47;;;;;;;;;;5021334;28;20205;-61
2024/01/24 10:00:17;;;;;;;11.23;2.80;;;;;;;;;;5018507;28;20220;-62
2024/01/24 10:02:45;;;;;;;10.20;3.27;;;;;;;;;;5020274;28;20293;-62
2024/01/24 10:05:14;;;;;;;7.27;2.60;;;;;;;;;;5023742;28;21089;-62
2024/01/24 10:07:42;;;;;;;9.53;3.30;;;;;;;;;;5021696;28;20204;-63
2024/01/24 10:10:12;;;;;;;11.17;2.90;;;;;;;;;;5022244;28;20205;-62
2024/01/24 10:12:40;;;;;;;10.70;2.70;;;;;;;;;;5024635;28;20196;-63
2024/01/24 10:15:07;;;;;;;14.80;3.20;;;;;;;;;;5025693;28;20208;-63
2024/01/24 10:17:34;;;;;;;11.80;3.33;;;;;;;;;;5028601;28;20496;-62
2024/01/24 10:20:06;;;;;;;10.10;2.93;;;;;;;;;;5025195;28;20196;-66
2024/01/24 10:22:33;;;;;;;13.87;3.23;;;;;;;;;;5021716;28;20205;-67
2024/01/24 10:25:00;;;;;;;13.10;3.30;;;;;;;;;;5024866;28;20204;-67
2024/01/24 10:27:29;;;;;;;13.30;3.60;;;;;;;;;;5020525;28;20252;-67
2024/01/24 10:29:56;;;;;;;12.00;3.23;;;;;;;;;;5024783;28;20208;-66
2024/01/24 10:32:23;;;;;;;9.93;3.00;;;;;;;;;;5021424;28;20222;-66
2024/01/24 10:34:50;;;;;;;12.37;3.30;;;;;;;;;;5024297;28;20230;-66
2024/01/24 10:37:18;;;;;;;11.03;3.17;;;;;;;;;;5023123;28;20210;-67
2024/01/24 10:39:45;;;;;;;13.80;3.27;;;;;;;;;;5017860;28;20211;-67
2024/01/24 10:42:17;;;;;;;12.97;2.87;;;;;;;;;;5023827;28;20201;-67
2024/01/24 10:44:46;;;;;;;9.93;3.17;;;;;;;;;;5025299;28;20208;-66
2024/01/24 10:47:13;;;;;;;12.07;3.33;;;;;;;;;;5022634;28;20200;-67
2024/01/24 10:49:41;;;;;;;9.63;2.80;;;;;;;;;;5024283;28;20438;-66
2024/01/24 10:52:09;;;;;;;11.80;3.00;;;;;;;;;;5027039;28;20223;-66
2024/01/24 10:54:37;;;;;;;17.17;3.83;;;;;;;;;;5022079;28;20244;-67
2024/01/24 10:57:06;;;;;;;13.00;3.50;;;;;;;;;;5021058;28;20205;-66
2024/01/24 10:59:33;;;;;;;12.90;3.37;;;;;;;;;;5021907;28;20200;-67
2024/01/24 11:02:02;;;;;;;12.57;3.33;;;;;;;;;;5024647;28;20223;-66
2024/01/24 11:04:29;;;;;;;13.17;3.40;;;;;;;;;;5024190;28;20245;-66
2024/01/24 11:06:58;;;;;;;17.83;4.17;;;;;;;;;;5027927;28;20200;-65
2024/01/24 11:09:28;;;;;;;13.93;3.60;;;;;;;;;;5023231;28;20199;-67
2024/01/24 11:11:57;;;;;;;14.03;3.30;;;;;;;;;;5021199;28;20240;-67
2024/01/24 11:14:30;;;;;;;16.13;3.40;;;;;;;;;;5020378;28;20259;-67
2024/01/24 11:16:57;;;;;;;11.57;3.53;;;;;;;;;;5020586;28;20251;-67
2024/01/24 11:19:26;;;;;;;16.23;3.60;;;;;;;;;;5026952;28;20203;-66
2024/01/24 11:22:00;;;;;;;15.27;3.63;;;;;;;;;;5020194;28;20200;-67
2024/01/24 11:24:46;;;;;;;14.52;4.03;;;;;;;;;;5022770;28;20195;-67
2024/01/24 11:27:25;;;;;;;14.20;3.40;;;;;;;;;;5028989;28;20276;-67
2024/01/24 11:29:52;;;;;;;14.73;3.17;;;;;;;;;;5016275;28;20298;-66
2024/01/24 11:32:34;;;;;;;13.60;3.63;;;;;;;;;;5021012;28;20215;-66
2024/01/24 11:35:16;;;;;;;14.57;3.93;;;;;;;;;;5028261;28;20210;-67
2024/01/24 11:37:45;;;;;;;15.03;3.80;;;;;;;;;;5021161;28;20263;-67
2024/01/24 11:40:12;;;;;;;15.17;3.70;;;;;;;;;;5020778;28;20204;-67
2024/01/24 11:42:43;;;;;;;15.97;4.50;;;;;;;;;;5021306;28;20822;-67
2024/01/24 11:45:16;;;;;;;17.70;4.03;;;;;;;;;;5025038;28;20254;-66
2024/01/24 11:47:44;;;;;;;16.30;3.80;;;;;;;;;;5023088;28;20200;-67
2024/01/24 11:50:11;;;;;;;17.00;4.37;;;;;;;;;;5018635;28;20431;-67
2024/01/24 11:52:39;;;;;;;16.90;4.37;;;;;;;;;;5019170;28;20224;-66
2024/01/24 11:55:08;;;;;;;15.20;4.67;;;;;;;;;;5019564;28;20201;-67
2024/01/24 11:57:35;;;;;;;16.17;4.23;;;;;;;;;;5019933;28;20193;-67
2024/01/24 12:00:03;;;;;;;14.33;4.13;;;;;;;;;;5019189;28;20208;-66
2024/01/24 12:02:30;;;;;;;14.17;3.67;;;;;;;;;;5021509;28;20204;-67
2024/01/24 12:04:57;;;;;;;15.37;3.80;;;;;;;;;;5017887;28;20209;-67
2024/01/24 12:07:25;;;;;;;14.77;3.63;;;;;;;;;;5018492;28;20196;-67
2024/01/24 12:09:53;;;;;;;15.93;4.50;;;;;;;;;;5020957;28;20207;-67
2024/01/24 12:12:21;;;;;;;18.87;4.43;;;;;;;;;;5019307;28;20213;-67
2024/01/24 12:14:48;;;;;;;15.70;4.00;;;;;;;;;;5021765;28;20211;-67
2024/01/24 12:17:16;;;;;;;14.53;3.77;;;;;;;;;;5024048;28;20199;-67
2024/01/24 12:19:44;;;;;;;14.93;4.17;;;;;;;;;;5020636;28;20200;-66
2024/01/24 12:22:11;;;;;;;16.53;4.30;;;;;;;;;;5019250;28;20200;-66
2024/01/24 12:24:39;;;;;;;18.47;4.73;;;;;;;;;;5018563;28;20208;-67
2024/01/24 12:27:06;;;;;;;9.90;3.63;;;;;;;;;;5017613;28;20204;-66
2024/01/24 12:29:35;;;;;;;18.63;4.70;;;;;;;;;;5020453;28;20215;-66
2024/01/24 12:32:02;;;;;;;17.73;5.00;;;;;;;;;;5023116;28;20227;-66
2024/01/24 12:34:30;;;;;;;18.73;4.70;;;;;;;;;;5024420;28;20426;-66
2024/01/24 12:36:59;;;;;;;13.40;3.70;;;;;;;;;;5022649;28;20207;-66
2024/01/24 12:39:27;;;;;;;15.03;3.67;;;;;;;;;;5023147;28;20201;-63
2024/01/24 12:41:54;;;;;;;15.00;4.10;;;;;;;;;;5022078;28;20192;-63
2024/01/24 12:44:21;;;;;;;16.43;4.30;;;;;;;;;;5019025;28;20204;-62
2024/01/24 12:46:54;;;;;;;15.13;3.97;;;;;;;;;;5024439;28;20209;-62
2024/01/24 12:49:21;;;;;;;13.83;3.73;;;;;;;;;;5020844;28;20189;-63
2024/01/24 12:51:48;;;;;;;16.00;4.13;;;;;;;;;;5022617;28;20221;-62
2024/01/24 12:54:15;;;;;;;14.03;4.00;;;;;;;;;;5020085;28;20201;-63
2024/01/24 12:56:42;;;;;;;19.37;4.50;;;;;;;;;;5021599;28;20216;-62
2024/01/24 12:59:09;;;;;;;22.87;4.40;;;;;;;;;;5018984;28;20208;-64
2024/01/24 13:01:37;;;;;;;18.50;4.20;;;;;;;;;;5017834;28;20210;-63
2024/01/24 13:04:05;;;;;;;13.30;3.97;;;;;;;;;;5015365;28;20271;-63
2024/01/24 13:06:32;;;;;;;17.47;3.73;;;;;;;;;;5020880;28;20216;-62
2024/01/24 13:09:00;;;;;;;17.33;3.93;;;;;;;;;;5024121;28;20202;-62
2024/01/24 13:11:28;;;;;;;19.80;4.33;;;;;;;;;;5026235;28;20223;-63
2024/01/24 13:13:55;;;;;;;14.07;4.07;;;;;;;;;;5024038;28;20196;-63
2024/01/24 13:16:22;;;;;;;14.33;3.93;;;;;;;;;;5020029;28;20207;-63
2024/01/24 13:18:49;;;;;;;19.77;4.43;;;;;;;;;;5014851;28;20196;-62
2024/01/24 13:21:17;;;;;;;18.97;4.30;;;;;;;;;;5015780;28;20332;-62
2024/01/24 13:23:45;;;;;;;18.07;4.43;;;;;;;;;;5020141;28;20197;-62
2024/01/24 13:26:12;;;;;;;18.13;4.27;;;;;;;;;;5022906;28;20204;-62
2024/01/24 13:28:39;;;;;;;17.90;4.30;;;;;;;;;;5019604;28;20208;-62
2024/01/24 13:31:06;;;;;;;15.53;4.00;;;;;;;;;;5021447;28;20205;-63
2024/01/24 13:33:33;;;;;;;15.37;4.40;;;;;;;;;;5020921;28;20219;-62
2024/01/24 13:36:00;;;;;;;16.03;4.13;;;;;;;;;;5024155;28;20224;-63
2024/01/24 13:38:31;;;;;;;13.70;4.00;;;;;;;;;;5023747;28;20207;-62
2024/01/24 13:40:59;;;;;;;18.50;4.87;;;;;;;;;;5016039;28;20197;-64
2024/01/24 13:43:26;;;;;;;12.93;3.77;;;;;;;;;;5020943;28;20207;-62
2024/01/24 13:45:53;;;;;;;16.87;4.33;;;;;;;;;;5023538;28;20196;-62
2024/01/24 13:48:20;;;;;;;13.97;3.83;;;;;;;;;;5019109;28;20207;-62
2024/01/24 13:50:47;;;;;;;19.77;4.20;;;;;;;;;;5018988;28;20523;-65
2024/01/24 13:53:14;;;;;;;17.03;4.03;;;;;;;;;;5021099;28;20215;-67
2024/01/24 13:55:43;;;;;;;16.43;3.77;;;;;;;;;;5023727;28;20207;-67
2024/01/24 13:58:10;;;;;;;15.77;5.20;;;;;;;;;;5021695;28;20205;-66
2024/01/24 14:00:37;;;;;;;17.63;5.13;;;;;;;;;;5018940;28;20192;-66
2024/01/24 14:03:04;;;;;;;16.43;4.20;;;;;;;;;;5025507;28;20309;-66
2024/01/24 14:05:31;;;;;;;16.67;3.87;;;;;;;;;;5018602;28;20211;-66
2024/01/24 14:07:58;;;;;;;13.47;3.80;;;;;;;;;;5018131;28;20208;-66
2024/01/24 14:10:25;;;;;;;14.73;4.13;;;;;;;;;;5016035;28;22503;-66
2024/01/24 14:12:54;;;;;;;16.17;3.50;;;;;;;;;;5018321;28;20231;-66
2024/01/24 14:15:21;;;;;;;14.20;3.63;;;;;;;;;;5025382;28;20200;-66
2024/01/24 14:17:48;;;;;;;16.07;4.40;;;;;;;;;;5023284;28;20199;-67
2024/01/24 14:20:16;;;;;;;15.43;4.20;;;;;;;;;;5022605;28;20200;-67
2024/01/24 14:22:43;;;;;;;16.13;4.03;;;;;;;;;;5023299;28;20203;-66
2024/01/24 14:25:10;;;;;;;16.03;4.30;;;;;;;;;;5026146;28;20210;-66
2024/01/24 14:27:38;;;;;;;16.13;5.00;;;;;;;;;;5018483;28;20211;-66
2024/01/24 14:30:07;;;;;;;13.50;3.70;;;;;;;;;;5021198;28;20208;-67
2024/01/24 14:32:37;;;;;;;16.63;3.93;;;;;;;;;;5022867;28;20220;-66
2024/01/24 14:35:05;;;;;;;13.83;4.50;;;;;;;;;;5028675;28;20270;-67
2024/01/24 14:37:32;;;;;;;16.63;4.30;;;;;;;;;;5025473;28;20200;-66
2024/01/24 14:39:59;;;;;;;15.63;4.07;;;;;;;;;;5015369;28;20204;-66
2024/01/24 14:42:26;;;;;;;14.63;4.20;;;;;;;;;;5020341;28;20197;-66